Thunder radar more information blitzortung!


Radar de pluja more information rain snow radar


Visita la nostra xarxa de llocs de meteo:

Template documentation
and downloads

And another site



No particular awareness of the weather is required.    There are no Weather-warnings

Pagina Historial Weather Underground text

Diari Resum Juliol 29, 2017 Unitats:  Mètric    Imperial   Tant
« Previous Dia
SegĂźent Dia »
Diari Setmana Mensual Anual Personalitzada
  Maxima: Minima: Media:
Temperatura: -17.8 °C -6.8 °C -2.3 °C
Punt de rosada: -17.8 °C -10.8 °C -8.7 °C
Humitat: Humidity % 29 % 52 %
Wind Speed: 0 km/h 0 km/h 10.3 km/h
RĂ fegues de vent: 0 km/h - -
Vent:- - South
Pression baro: 0 hPa 34256.2 hPa -
Precipitacions: 0 mm    
Historical Graphs
 
 
Dades de taula per Juliol 29, 2017
Temps Temperatura Punt de rosada Pression baro Vent Wind Speed RĂ fegues de vent Humitat Rainfall Rate (Hourly)
-17.8 °C -17.8 °C 0 hPa Calm     Humidity % 0 mm
00:00 -6.3 °C -7.8 °C 34395 hPa Calm   5.1 km/h 85 % 0 mm
00:03 -5.1 °C -7.2 °C 34395 hPa NNE 9 km/h 9 km/h 79 % 0 mm
00:10 -6.4 °C -7.9 °C 34395 hPa Calm   2.6 km/h 85 % 0 mm
00:20 -6.4 °C -7.9 °C 34361.1 hPa Calm     85 % 0 mm
00:30 -6.5 °C -7.8 °C 34361.1 hPa SW 2.6 km/h 5.1 km/h 86 % 0 mm
00:40 -6.6 °C -7.9 °C 34361.1 hPa SW 2.6 km/h 5.1 km/h 86 % 0 mm
00:50 -6.6 °C -7.8 °C 34361.1 hPa Calm   2.6 km/h 87 % 0 mm
01:00 -6.6 °C -7.8 °C 34361.1 hPa Calm     87 % 0 mm
01:10 -6.6 °C -7.8 °C 34361.1 hPa Calm     87 % 0 mm
01:20 -6.6 °C -7.7 °C 34361.1 hPa Calm     88 % 0 mm
01:30 -6.7 °C -7.9 °C 34361.1 hPa Calm     88 % 0 mm
01:40 -6.7 °C -7.9 °C 34361.1 hPa Calm     88 % 0 mm
01:50 -6.8 °C -7.9 °C 34361.1 hPa Calm     88 % 0 mm
02:00 -6.8 °C -7.9 °C 34361.1 hPa Calm     88 % 0 mm
02:10 -6.8 °C -7.9 °C 34395 hPa Calm     88 % 0 mm
02:20 -6.8 °C -7.9 °C 34361.1 hPa Calm     88 % 0 mm
02:30 -6.8 °C -7.9 °C 34361.1 hPa South 2.6 km/h 2.6 km/h 88 % 0 mm
02:40 -6.7 °C -7.9 °C 34361.1 hPa Calm   5.1 km/h 88 % 0 mm
02:50 -6.6 °C -7.7 °C 34395 hPa WSW 2.6 km/h 2.6 km/h 88 % 0 mm
03:00 -6.3 °C -7.4 °C 34395 hPa Calm   2.6 km/h 88 % 0 mm
03:10 -6.1 °C -7.3 °C 34395 hPa ESE 2.6 km/h 5.1 km/h 87 % 0 mm
03:20 -5.9 °C -7.3 °C 34395 hPa East 2.6 km/h 2.6 km/h 86 % 0 mm
03:30 -5.8 °C -7.3 °C 34395 hPa SSE 5.1 km/h 5.1 km/h 85 % 0 mm
03:40 -5.6 °C -7.1 °C 34395 hPa SSW 2.6 km/h 5.1 km/h 84 % 0 mm
04:00 -4.8 °C -7.2 °C 34395 hPa ENE 2.6 km/h 5.1 km/h 77 % 0 mm
04:10 -4.7 °C -7.2 °C 34395 hPa ENE 7.7 km/h 7.7 km/h 76 % 0 mm
04:20 -4.2 °C -6.9 °C 34395 hPa ENE 2.6 km/h 5.1 km/h 74 % 0 mm
04:30 -4.2 °C -7.2 °C 34395 hPa ENE 5.1 km/h 10.3 km/h 72 % 0 mm
04:40 -3.8 °C -7 °C 34361.1 hPa Calm   5.1 km/h 71 % 0 mm
04:50 -3.6 °C -7.1 °C 34395 hPa NNE 2.6 km/h 5.1 km/h 68 % 0 mm
05:00 -3.3 °C -7.1 °C 34395 hPa ESE 7.7 km/h 10.3 km/h 66 % 0 mm
05:10 -3.3 °C -7.3 °C 34395 hPa ESE 5.1 km/h 10.3 km/h 65 % 0 mm
05:20 -3.1 °C -7.1 °C 34395 hPa East 5.1 km/h 10.3 km/h 65 % 0 mm
05:30 -3.1 °C -7.4 °C 34395 hPa NE 12.9 km/h 12.9 km/h 62 % 0 mm
10:33 -3.1 °C -7.4 °C 34395 hPa ENE 9 km/h 9 km/h 62 % 0 mm
10:38 -2.9 °C -7.9 °C 34395 hPa East 15 km/h 15 km/h 58 % 0 mm
10:43 -2.9 °C -7.9 °C 34395 hPa NNE 9 km/h 9 km/h 58 % 0 mm
10:48 -2.7 °C -7.9 °C 34395 hPa SSE 9 km/h 9 km/h 57 % 0 mm
10:53 -2.3 °C -7.3 °C 34395 hPa SW 6.3 km/h 6.3 km/h 58 % 0 mm
10:58 -2.4 °C -7.3 °C 34395 hPa SW 11.9 km/h 11.9 km/h 59 % 0 mm
11:03 -2.2 °C -7.2 °C 34361.1 hPa NW 6.3 km/h 6.3 km/h 58 % 0 mm
11:08 -2.2 °C -7.2 °C 34361.1 hPa SSW 6 km/h 6 km/h 58 % 0 mm
11:13 -1.6 °C -7.2 °C 34361.1 hPa SSE 6.8 km/h 6.8 km/h 55 % 0 mm
11:18 -1.6 °C -7.1 °C 34361.1 hPa NE 11.9 km/h 11.9 km/h 55 % 0 mm
11:24 -2 °C -7.5 °C 34361.1 hPa ESE 11.9 km/h 11.9 km/h 55 % 0 mm
11:29 -1.9 °C -7.3 °C 34361.1 hPa ESE 9 km/h 9 km/h 56 % 0 mm
11:34 -1.8 °C -7.3 °C 34361.1 hPa ENE 7.6 km/h 7.6 km/h 55 % 0 mm
11:39 -2 °C -7.5 °C 34361.1 hPa East 11.9 km/h 11.9 km/h 55 % 0 mm
11:41 -1.9 °C -7.4 °C 34361.1 hPa SSW 6 km/h 6 km/h 55 % 0 mm
11:46 -1.3 °C -7.2 °C 34361.1 hPa South 11.9 km/h 11.9 km/h 53 % 0 mm
11:51 -0.9 °C -6.7 °C 34361.1 hPa WSW 9.3 km/h 9.3 km/h 54 % 0 mm
11:56 -1.2 °C -7.2 °C 34361.1 hPa East 9 km/h 9 km/h 52 % 0 mm
12:01 -1 °C -7.3 °C 34361.1 hPa SE 12.2 km/h 12.2 km/h 51 % 0 mm
12:06 -0.7 °C -6.8 °C 34361.1 hPa SE 6 km/h 6 km/h 52 % 0 mm
12:11 -0.9 °C -7.4 °C 34361.1 hPa ESE 12.2 km/h 12.2 km/h 50 % 0 mm
12:13 -1.1 °C -7.3 °C 34361.1 hPa ENE 11.9 km/h 11.9 km/h 51 % 0 mm
12:18 -1.2 °C -7.4 °C 34361.1 hPa NNE 15 km/h 15 km/h 51 % 0 mm
12:23 -1 °C -7.4 °C 34361.1 hPa SE 9 km/h 9 km/h 50 % 0 mm
12:28 -0.6 °C -7.1 °C 34361.1 hPa WSW 11.9 km/h 11.9 km/h 50 % 0 mm
12:33 -0.2 °C -6.9 °C 34361.1 hPa SSE 4.2 km/h 4.2 km/h 49 % 0 mm
12:38 -0.1 °C -6.8 °C 34361.1 hPa WNW 11.9 km/h 11.9 km/h 49 % 0 mm
12:43 -0.7 °C -7.5 °C 34361.1 hPa East 17.9 km/h 17.9 km/h 48 % 0 mm
12:48 -0.8 °C -7.3 °C 34327.3 hPa NE 11.9 km/h 11.9 km/h 50 % 0 mm
12:53 -0.6 °C -7.3 °C 34327.3 hPa SSE 20.9 km/h 20.9 km/h 49 % 0 mm
13:03 -0.5 °C -7.3 °C 34327.3 hPa ESE 17.9 km/h 17.9 km/h 48 % 0 mm
13:08 -0.9 °C -7.5 °C 34327.3 hPa ESE 20.9 km/h 20.9 km/h 49 % 0 mm
13:13 -0.9 °C -7.4 °C 34327.3 hPa SE 20.9 km/h 20.9 km/h 50 % 0 mm
13:18 -0.9 °C -7.4 °C 34327.3 hPa ESE 29.8 km/h 29.8 km/h 50 % 0 mm
13:23 -0.9 °C -7.4 °C 34327.3 hPa ENE 23.8 km/h 23.8 km/h 50 % 0 mm
13:28 -0.9 °C -7.4 °C 34327.3 hPa NE 23.8 km/h 23.8 km/h 50 % 0 mm
13:33 -0.8 °C -7.2 °C 34327.3 hPa ESE 17.9 km/h 17.9 km/h 50 % 0 mm
13:38 -0.9 °C -7.6 °C 34327.3 hPa SE 29.8 km/h 29.8 km/h 49 % 0 mm
13:43 -0.9 °C -7.4 °C 34327.3 hPa SSE 28.2 km/h 28.2 km/h 50 % 0 mm
13:48 -0.8 °C -7.3 °C 34327.3 hPa ENE 26.9 km/h 26.9 km/h 50 % 0 mm
13:53 -0.8 °C -7.4 °C 34327.3 hPa ESE 29.8 km/h 29.8 km/h 49 % 0 mm
13:58 -0.8 °C -7.4 °C 34327.3 hPa ESE 26.9 km/h 26.9 km/h 49 % 0 mm
14:03 -0.7 °C -7.3 °C 34327.3 hPa SSE 26.9 km/h 26.9 km/h 49 % 0 mm
14:08 -0.9 °C -7.5 °C 34327.3 hPa SE 38.8 km/h 38.8 km/h 49 % 0 mm
14:13 -0.8 °C -7.3 °C 34327.3 hPa ESE 26.9 km/h 26.9 km/h 50 % 0 mm
14:18 -0.8 °C -7.3 °C 34327.3 hPa ENE 26.9 km/h 26.9 km/h 50 % 0 mm
14:23 -1 °C -7.4 °C 34327.3 hPa ESE 31.9 km/h 31.9 km/h 50 % 0 mm
14:28 -0.9 °C -7.3 °C 34327.3 hPa WSW 15 km/h 15 km/h 50 % 0 mm
14:33 -0.8 °C -7.2 °C 34327.3 hPa ESE 20.9 km/h 20.9 km/h 50 % 0 mm
14:38 -0.7 °C -7.2 °C 34327.3 hPa SSW 15 km/h 15 km/h 50 % 0 mm
14:43 -0.4 °C -7.3 °C 34327.3 hPa SE 17.9 km/h 17.9 km/h 48 % 0 mm
14:48 0.3 °C -7.4 °C 34293.4 hPa South 12.2 km/h 12.2 km/h 44 % 0 mm
14:53 0.8 °C -7.6 °C 34293.4 hPa SW 14.5 km/h 14.5 km/h 41 % 0 mm
14:58 0.9 °C -7.4 °C 34293.4 hPa West 20.9 km/h 20.9 km/h 41 % 0 mm
15:03 0.9 °C -8.1 °C 34293.4 hPa South 11.9 km/h 11.9 km/h 38 % 0 mm
15:13 0.9 °C -8.1 °C 34327.3 hPa SW 17.9 km/h 17.9 km/h 38 % 0 mm
15:18 1.1 °C -8.2 °C 34327.3 hPa SSW 20.9 km/h 20.9 km/h 37 % 0 mm
15:23 1.2 °C -8.3 °C 34327.3 hPa WSW 9 km/h 9 km/h 36 % 0 mm
15:28 1.1 °C -8.7 °C 34327.3 hPa SW 11.9 km/h 11.9 km/h 35 % 0 mm
15:33 1.4 °C -8.2 °C 34327.3 hPa WSW 9.8 km/h 9.8 km/h 36 % 0 mm
15:38 1.6 °C -8.5 °C 34327.3 hPa SW 17.9 km/h 17.9 km/h 34 % 0 mm
15:43 1.4 °C -8.7 °C 34327.3 hPa West 11.9 km/h 11.9 km/h 34 % 0 mm
15:48 1.6 °C -8.8 °C 34327.3 hPa SSW 9 km/h 9 km/h 33 % 0 mm
15:53 1.6 °C -8.8 °C 34327.3 hPa South 15 km/h 15 km/h 33 % 0 mm
15:58 1.4 °C -9.2 °C 34327.3 hPa West 15 km/h 15 km/h 32 % 0 mm
16:03 1.3 °C -9.3 °C 34327.3 hPa SSW 18.3 km/h 18.3 km/h 32 % 0 mm
16:08 1.3 °C -9.6 °C 34327.3 hPa South 23.8 km/h 23.8 km/h 31 % 0 mm
16:13 1.2 °C -9.3 °C 34327.3 hPa WSW 9.3 km/h 9.3 km/h 32 % 0 mm
16:18 1.1 °C -9.5 °C 34327.3 hPa SSW 11.9 km/h 11.9 km/h 32 % 0 mm
16:23 1.1 °C -9.8 °C 34327.3 hPa SW 32.8 km/h 32.8 km/h 31 % 0 mm
16:28 1.1 °C -9.7 °C 34327.3 hPa SW 15 km/h 15 km/h 31 % 0 mm
16:33 1.2 °C -9.9 °C 34327.3 hPa South 23.8 km/h 23.8 km/h 30 % 0 mm
16:38 1.2 °C -9.9 °C 34327.3 hPa SSW 11.9 km/h 11.9 km/h 30 % 0 mm
16:43 1.3 °C -9.6 °C 34327.3 hPa WSW 10.3 km/h 10.3 km/h 31 % 0 mm
16:48 1.4 °C -9.5 °C 34327.3 hPa SW 15 km/h 15 km/h 31 % 0 mm
16:53 1.2 °C -9.9 °C 34293.4 hPa SW 25.1 km/h 25.1 km/h 30 % 0 mm
16:58 0.8 °C -10.2 °C 34293.4 hPa SSW 17.9 km/h 17.9 km/h 30 % 0 mm
17:03 0.8 °C -10.2 °C 34327.3 hPa WNW 20.9 km/h 20.9 km/h 30 % 0 mm
17:08 0.9 °C -10.2 °C 34327.3 hPa SW 17.9 km/h 17.9 km/h 30 % 0 mm
17:18 0.8 °C -10.6 °C 34327.3 hPa ESE 11.9 km/h 11.9 km/h 29 % 0 mm
17:23 0.9 °C -10.2 °C 34327.3 hPa SW 15 km/h 15 km/h 30 % 0 mm
17:28 0.6 °C -10.8 °C 34327.3 hPa South 23.8 km/h 23.8 km/h 29 % 0 mm
17:33 0.5 °C -10.5 °C 34293.4 hPa South 17.9 km/h 17.9 km/h 30 % 0 mm
17:38 0.6 °C -10.7 °C 34293.4 hPa SSW 20.9 km/h 20.9 km/h 29 % 0 mm
17:43 0.3 °C -10.7 °C 34293.4 hPa SSW 17.9 km/h 17.9 km/h 30 % 0 mm
17:48 0.5 °C -10.5 °C 34327.3 hPa SSW 15 km/h 15 km/h 30 % 0 mm
17:53 0.4 °C -10.6 °C 34327.3 hPa SW 20.9 km/h 20.9 km/h 30 % 0 mm
17:58 0.5 °C -10.2 °C 34327.3 hPa ESE 11.9 km/h 11.9 km/h 31 % 0 mm
18:03 0.5 °C -10.2 °C 34293.4 hPa SW 17.9 km/h 17.9 km/h 31 % 0 mm
18:13 0.3 °C -10.4 °C 34293.4 hPa SW 23.8 km/h 23.8 km/h 31 % 0 mm
18:18 0.1 °C -10.7 °C 34293.4 hPa SW 20.9 km/h 20.9 km/h 31 % 0 mm
18:23 -0.1 °C -10.7 °C 34293.4 hPa SW 26.9 km/h 26.9 km/h 31 % 0 mm
18:33 0.1 °C -10.4 °C 34327.3 hPa SW 17.9 km/h 17.9 km/h 32 % 0 mm
18:38 0 °C -10.4 °C 34327.3 hPa SW 9.8 km/h 9.8 km/h 32 % 0 mm
18:43 0.1 °C -10.4 °C 34327.3 hPa SSW 9 km/h 9 km/h 32 % 0 mm
18:48 0.1 °C -10.3 °C 34293.4 hPa SSW 12.2 km/h 12.2 km/h 32 % 0 mm
18:53 -0.2 °C -10.3 °C 34293.4 hPa WSW 20.9 km/h 20.9 km/h 33 % 0 mm
18:58 -0.2 °C -10.3 °C 34293.4 hPa South 17.9 km/h 17.9 km/h 33 % 0 mm
19:03 -0.2 °C -10.1 °C 34293.4 hPa SW 15 km/h 15 km/h 34 % 0 mm
19:08 -0.3 °C -10.2 °C 34293.4 hPa SW 15 km/h 15 km/h 34 % 0 mm
19:13 -0.6 °C -10.4 °C 34293.4 hPa SW 20.9 km/h 20.9 km/h 34 % 0 mm
19:18 -0.4 °C -10.3 °C 34293.4 hPa SW 15 km/h 15 km/h 34 % 0 mm
19:23 -0.6 °C -10.2 °C 34293.4 hPa South 15.6 km/h 15.6 km/h 35 % 0 mm
19:28 -0.8 °C -10.2 °C 34293.4 hPa WSW 16.1 km/h 16.1 km/h 36 % 0 mm
19:33 -0.8 °C -10.1 °C 34293.4 hPa SSE 11.1 km/h 11.1 km/h 36 % 0 mm
19:38 -0.9 °C -10.2 °C 34293.4 hPa SW 11.9 km/h 11.9 km/h 36 % 0 mm
19:43 -0.9 °C -10.2 °C 34293.4 hPa SW 15 km/h 15 km/h 36 % 0 mm
19:48 -0.9 °C -10.2 °C 34293.4 hPa SW 12.7 km/h 12.7 km/h 36 % 0 mm
19:53 -1.1 °C -10.4 °C 34293.4 hPa SW 11.9 km/h 11.9 km/h 36 % 0 mm
20:03 -1.3 °C -10.1 °C 34256.2 hPa SW 9 km/h 9 km/h 38 % 0 mm
20:08 -1.3 °C -10.1 °C 34256.2 hPa SSW 6 km/h 6 km/h 38 % 0 mm
20:13 -1.4 °C -10.2 °C 34256.2 hPa South 15 km/h 15 km/h 38 % 0 mm
20:18 -1.4 °C -10.2 °C 34293.4 hPa SE 8 km/h 8 km/h 38 % 0 mm
20:23 -1.5 °C -10.3 °C 34293.4 hPa SW 10.3 km/h 10.3 km/h 38 % 0 mm
20:28 -1.6 °C -10.1 °C 34293.4 hPa West 11.9 km/h 11.9 km/h 39 % 0 mm
20:33 -1.7 °C -10.2 °C 34256.2 hPa WSW 6 km/h 6 km/h 39 % 0 mm
20:38 -1.7 °C -9.8 °C 34256.2 hPa West 11.9 km/h 11.9 km/h 41 % 0 mm
20:40 -5 °C -8.7 °C 34293.4 hPa Calm     66 % 0 mm
20:43 -1.9 °C -9.9 °C 34256.2 hPa SW 9 km/h 9 km/h 41 % 0 mm
20:48 -1.9 °C -10.1 °C 34293.4 hPa SW 7.6 km/h 7.6 km/h 41 % 0 mm
20:50 -5 °C -8.6 °C 34293.4 hPa Calm     67 % 0 mm
20:53 -2 °C -9.9 °C 34293.4 hPa SW 6 km/h 6 km/h 42 % 0 mm
20:58 -2.1 °C -9.9 °C 34293.4 hPa SW 9.3 km/h 9.3 km/h 42 % 0 mm
21:00 -5.1 °C -8.7 °C 34293.4 hPa Calm     67 % 0 mm
21:03 -2.2 °C -10.1 °C 34293.4 hPa WSW 12.2 km/h 12.2 km/h 42 % 0 mm
21:08 -2.3 °C -9.9 °C 34293.4 hPa WSW 9.3 km/h 9.3 km/h 43 % 0 mm
21:10 -5.1 °C -8.6 °C 34293.4 hPa Calm     68 % 0 mm
21:13 -2.4 °C -10.1 °C 34293.4 hPa SW 9 km/h 9 km/h 43 % 0 mm
21:18 -2.5 °C -9.9 °C 34293.4 hPa SW 7.6 km/h 7.6 km/h 44 % 0 mm
21:20 -5.2 °C -8.6 °C 34327.3 hPa Calm   5.1 km/h 68 % 0 mm
21:23 -2.6 °C -10 °C 34293.4 hPa SSW 9 km/h 9 km/h 44 % 0 mm
21:28 -2.7 °C -9.9 °C 34293.4 hPa SW 9 km/h 9 km/h 45 % 0 mm
21:33 -2.8 °C -9.9 °C 34293.4 hPa SW 6 km/h 6 km/h 45 % 0 mm
21:38 -2.9 °C -9.7 °C 34293.4 hPa SW 9 km/h 9 km/h 47 % 0 mm
21:40 -5.4 °C -8.7 °C 34293.4 hPa Calm   2.6 km/h 69 % 0 mm
21:43 -2.9 °C -9.8 °C 34293.4 hPa SW 6 km/h 6 km/h 47 % 0 mm
21:48 -3 °C -9.8 °C 34293.4 hPa SW 9 km/h 9 km/h 47 % 0 mm
21:50 -5.4 °C -8.8 °C 34293.4 hPa ENE 2.6 km/h 5.1 km/h 69 % 0 mm
21:53 -3.1 °C -9.7 °C 34293.4 hPa SW 6 km/h 6 km/h 48 % 0 mm
21:58 -3.2 °C -9.8 °C 34293.4 hPa SW 6.8 km/h 6.8 km/h 48 % 0 mm
22:00 -5.5 °C -8.8 °C 34293.4 hPa ENE 2.6 km/h 5.1 km/h 69 % 0 mm
22:03 -3.2 °C -9.6 °C 34327.3 hPa SSW 3.1 km/h 3.1 km/h 49 % 0 mm
22:08 -3.3 °C -9.7 °C 34327.3 hPa WSW 3.1 km/h 3.1 km/h 49 % 0 mm
22:10 -5.7 °C -9 °C 34293.4 hPa NE 5.1 km/h 5.1 km/h 69 % 0 mm
22:13 -3.3 °C -9.7 °C 34327.3 hPa WSW 6 km/h 6 km/h 49 % 0 mm
22:18 -3.4 °C -9.6 °C 34327.3 hPa WSW 3.1 km/h   50 % 0 mm
22:20 -5.8 °C -9.1 °C 34293.4 hPa NE 2.6 km/h 5.1 km/h 69 % 0 mm
22:23 -3.4 °C -9.7 °C 34327.3 hPa WSW 6 km/h 6 km/h 50 % 0 mm
22:28 -3.4 °C -9.5 °C 34327.3 hPa Calm     51 % 0 mm
22:30 -5.8 °C -9.2 °C 34293.4 hPa Calm   5.1 km/h 68 % 0 mm
22:33 -3.5 °C -9.6 °C 34327.3 hPa West 3.1 km/h   51 % 0 mm
22:38 -3.6 °C -9.4 °C 34327.3 hPa West 3.7 km/h   52 % 0 mm
22:40 -5.8 °C -9.4 °C 34256.2 hPa Calm     67 % 0 mm
22:43 -3.6 °C -9.4 °C 34327.3 hPa West 3.1 km/h   52 % 0 mm
22:48 -3.6 °C -9.3 °C 34327.3 hPa West 3.1 km/h 3.1 km/h 53 % 0 mm
22:50 -5.9 °C -9.1 °C 34293.4 hPa Calm     70 % 0 mm
22:53 -3.6 °C -9.3 °C 34327.3 hPa WSW 6 km/h 6 km/h 53 % 0 mm
22:58 -3.7 °C -9.2 °C 34327.3 hPa WSW 6 km/h 6 km/h 54 % 0 mm
23:00 -6.1 °C -9.5 °C 34293.4 hPa Calm     68 % 0 mm
23:03 -3.7 °C -9.2 °C 34293.4 hPa SW 6 km/h 6 km/h 54 % 0 mm
23:08 -3.7 °C -9.3 °C 34293.4 hPa SW 3.1 km/h   54 % 0 mm
23:10 -6 °C -9.6 °C 34256.2 hPa Calm     67 % 0 mm
23:13 -3.8 °C -9.2 °C 34293.4 hPa WSW 3.1 km/h   55 % 0 mm
23:18 -3.8 °C -9.2 °C 34293.4 hPa West 6 km/h 6 km/h 55 % 0 mm
23:20 -6 °C -9.3 °C 34256.2 hPa Calm     69 % 0 mm
23:23 -3.9 °C -9.1 °C 34293.4 hPa WSW 3.1 km/h   56 % 0 mm
23:30 -6.1 °C -9.5 °C 34256.2 hPa NNE 2.6 km/h 2.6 km/h 68 % 0 mm
23:33 -3.9 °C -9.1 °C 34327.3 hPa West 5.1 km/h 5.1 km/h 56 % 0 mm
23:38 -3.9 °C -9 °C 34327.3 hPa WSW 6 km/h 6 km/h 57 % 0 mm
23:40 -6 °C -9.6 °C 34256.2 hPa Calm   2.6 km/h 67 % 0 mm
23:43 -3.9 °C -8.8 °C 34327.3 hPa WSW 6 km/h   58 % 0 mm
23:49 -4 °C -8.9 °C 34327.3 hPa West 3.1 km/h   58 % 0 mm
23:50 -6.1 °C -9.3 °C 34256.2 hPa Calm     69 % 0 mm
23:54 -4.1 °C -8.8 °C 34327.3 hPa West 3.1 km/h   59 % 0 mm
23:59 -4.1 °C -8.8 °C 34327.3 hPa WNW 6 km/h 6 km/h 59 % 0 mm
Meteo Sesrovires
Elogis d' Weather Underground - 3.75 mb

Guio original per  Jim McMurry - jmcmurry@mwt.net Adaptat per a la plantilla per  Wim van der Kuil - Leuven-Template.eu

Trobareu la nostra informacio del temps tambe a:

Weather Underground

AWEKAS